createdAt,value
2022-11-27T07:56:11.939Z,99480.66
2022-11-27T07:58:40.054Z,99478.59
2022-11-27T08:01:12.047Z,99475.75
2022-11-27T08:03:39.539Z,99474.19
2022-11-27T08:06:24.190Z,99470.50
2022-11-27T08:08:52.460Z,99471.63
2022-11-27T08:11:30.190Z,99480.13
2022-11-27T08:14:03.486Z,99475.25
2022-11-27T08:16:33.230Z,99476.03
2022-11-27T08:19:00.806Z,99475.56
2022-11-27T08:21:30.307Z,99468.13
2022-11-27T08:23:58.489Z,99474.81
2022-11-27T08:26:27.794Z,99472.53
2022-11-27T08:28:56.835Z,99459.94
2022-11-27T08:31:25.093Z,99467.69
2022-11-27T08:33:52.844Z,99486.44
2022-11-27T08:36:20.349Z,99480.09
2022-11-27T08:38:47.690Z,99484.06
2022-11-27T08:41:15.102Z,99479.00
2022-11-27T08:43:42.418Z,99463.88
2022-11-27T08:46:11.063Z,99460.94
2022-11-27T08:48:38.696Z,99461.97
2022-11-27T08:51:15.067Z,99449.03
2022-11-27T08:53:45.472Z,99452.09
2022-11-27T08:56:24.934Z,99455.13
2022-11-27T08:58:53.018Z,99453.50
2022-11-27T09:01:29.016Z,99454.47
2022-11-27T09:03:56.957Z,99453.44
2022-11-27T09:06:30.231Z,99451.34
2022-11-27T09:09:00.919Z,99453.28
2022-11-27T09:11:34.510Z,99442.03
2022-11-27T09:14:04.164Z,99439.31
2022-11-27T09:16:32.022Z,99433.06
2022-11-27T09:18:59.422Z,99438.50
2022-11-27T09:21:32.686Z,99434.16
2022-11-27T09:24:02.183Z,99429.84
2022-11-27T09:26:30.591Z,99425.34
2022-11-27T09:28:59.254Z,99423.75
2022-11-27T09:31:27.213Z,99425.19
2022-11-27T09:33:54.649Z,99422.47
2022-11-27T09:36:26.204Z,99421.47
2022-11-27T09:38:54.389Z,99425.53
2022-11-27T09:41:59.843Z,99411.09
2022-11-27T09:45:08.633Z,99408.03
2022-11-27T09:48:02.460Z,99415.63
2022-11-27T09:50:40.814Z,99412.88
2022-11-27T09:54:05.989Z,99417.09
2022-11-27T09:56:36.763Z,99422.41
2022-11-27T09:59:11.608Z,99397.72
2022-11-27T10:01:46.395Z,99390.44
2022-11-27T10:04:21.290Z,99376.06
2022-11-27T10:08:07.187Z,99368.81
2022-11-27T10:11:24.454Z,99369.28
2022-11-27T10:14:44.256Z,99347.19
2022-11-27T10:17:35.647Z,99351.72
2022-11-27T10:20:30.116Z,99363.81
2022-11-27T10:23:27.683Z,99364.75
2022-11-27T10:26:34.286Z,99355.03
2022-11-27T10:29:14.506Z,99356.00
2022-11-27T10:31:57.213Z,99352.91
2022-11-27T10:35:30.071Z,99346.38
2022-11-27T10:38:14.673Z,99339.72
2022-11-27T10:41:28.466Z,99331.47
2022-11-27T10:44:45.863Z,99321.31
2022-11-27T10:47:15.475Z,99326.88
2022-11-27T10:49:44.091Z,99327.97
2022-11-27T10:52:19.983Z,99318.72
2022-11-27T10:55:26.482Z,99315.97
2022-11-27T10:58:27.008Z,99313.22
2022-11-27T11:01:17.405Z,99314.16
2022-11-27T11:03:45.109Z,99308.09
2022-11-27T11:06:26.840Z,99298.59
2022-11-27T11:09:30.985Z,99291.09
2022-11-27T11:12:21.306Z,99279.22
2022-11-27T11:15:01.619Z,99292.13
2022-11-27T11:17:34.884Z,99276.66
2022-11-27T11:20:24.078Z,99278.81
2022-11-27T11:22:51.665Z,99270.09
2022-11-27T11:25:22.263Z,99265.63
2022-11-27T11:27:51.349Z,99262.34
2022-11-27T11:30:29.904Z,99263.88
2022-11-27T11:33:03.283Z,99258.97
2022-11-27T11:35:39.740Z,99265.22
2022-11-27T11:38:19.447Z,99254.78
2022-11-27T11:41:06.376Z,99259.88
2022-11-27T11:43:38.627Z,99243.56
2022-11-27T11:46:22.823Z,99226.72
2022-11-27T11:49:27.833Z,99220.34
2022-11-27T11:52:22.188Z,99212.97
2022-11-27T11:55:44.502Z,99207.72
2022-11-27T11:59:01.057Z,99198.66
2022-11-27T12:02:39.045Z,99187.53
2022-11-27T12:05:47.143Z,99183.84
2022-11-27T12:09:08.950Z,99187.09
2022-11-27T12:12:22.578Z,99180.44
2022-11-27T12:15:38.095Z,99186.56
2022-11-27T12:19:18.817Z,99179.50
2022-11-27T12:22:43.487Z,99176.25
2022-11-27T12:25:38.419Z,99168.66
2022-11-27T12:28:36.623Z,99167.31
2022-11-27T12:31:45.224Z,99160.03
2022-11-27T12:35:31.969Z,99145.50
2022-11-27T12:38:36.312Z,99128.03
2022-11-27T12:42:27.419Z,99125.00
2022-11-27T12:45:43.441Z,99132.34
2022-11-27T12:48:48.042Z,99117.34
2022-11-27T12:51:47.105Z,99106.03
2022-11-27T12:54:52.547Z,99104.38
2022-11-27T12:57:49.784Z,99084.69
2022-11-27T13:00:25.978Z,99095.00
2022-11-27T13:03:14.146Z,99095.94
2022-11-27T13:06:03.528Z,99092.25
2022-11-27T13:09:18.465Z,99096.31
2022-11-27T13:11:46.185Z,99092.69
2022-11-27T13:14:26.490Z,99090.31
2022-11-27T13:17:05.033Z,99080.50
2022-11-27T13:20:03.088Z,99075.94
2022-11-27T13:22:36.035Z,99071.56
2022-11-27T13:25:04.808Z,99055.97
2022-11-27T13:27:36.248Z,99053.38
2022-11-27T13:30:09.638Z,99058.59
2022-11-27T13:32:59.716Z,99045.03
2022-11-27T13:35:43.330Z,99045.34
2022-11-27T13:38:26.211Z,99035.59
2022-11-27T13:40:57.502Z,99023.97
2022-11-27T13:43:50.319Z,99027.34
2022-11-27T13:46:27.419Z,99022.88
2022-11-27T13:49:05.272Z,99017.28
2022-11-27T13:51:39.614Z,99007.34
2022-11-27T13:54:21.295Z,98994.91
2022-11-27T13:56:51.848Z,98996.75
2022-11-27T13:59:25.699Z,98990.69
2022-11-27T14:02:05.197Z,98988.63
2022-11-27T14:04:34.678Z,98980.72
2022-11-27T14:07:11.697Z,98966.53
2022-11-27T14:09:53.942Z,98971.44
2022-11-27T14:12:33.101Z,98968.31
2022-11-27T14:15:25.284Z,98965.72
2022-11-27T14:18:08.586Z,98961.94
2022-11-27T14:20:51.327Z,98961.03
2022-11-27T14:23:52.463Z,98957.59
2022-11-27T14:26:25.179Z,98961.56
2022-11-27T14:28:55.856Z,98965.47
2022-11-27T14:31:35.269Z,98961.91
2022-11-27T14:34:23.169Z,98967.63
2022-11-27T14:36:53.120Z,98957.75
2022-11-27T14:39:31.787Z,98954.63
2022-11-27T14:42:25.067Z,98940.94
2022-11-27T14:45:13.718Z,98930.97
2022-11-27T14:47:55.826Z,98925.47
2022-11-27T14:50:23.693Z,98920.44
2022-11-27T14:52:57.129Z,98915.41
2022-11-27T14:55:28.886Z,98924.94
2022-11-27T14:57:59.089Z,98926.75
2022-11-27T15:00:28.832Z,98924.81
2022-11-27T15:03:06.896Z,98938.09
2022-11-27T15:05:38.917Z,98930.66
2022-11-27T15:08:10.458Z,98938.56
2022-11-27T15:10:41.327Z,98939.69
2022-11-27T15:13:36.564Z,98942.88
2022-11-27T15:16:16.560Z,98944.72
2022-11-27T15:19:02.001Z,98930.56
2022-11-27T15:21:29.714Z,98913.03
2022-11-27T15:23:57.652Z,98908.59
2022-11-27T15:26:44.914Z,98898.44
2022-11-27T15:29:38.114Z,98917.41
2022-11-27T15:32:27.044Z,98916.44
2022-11-27T15:34:55.298Z,98916.94
2022-11-27T15:37:34.221Z,98917.41
2022-11-27T15:40:02.563Z,98915.03
2022-11-27T15:42:30.661Z,98907.81
2022-11-27T15:44:58.637Z,98895.19
2022-11-27T15:47:37.394Z,98890.06
2022-11-27T15:50:07.403Z,98886.59
2022-11-27T15:52:34.663Z,98875.69
2022-11-27T15:55:01.923Z,98873.25
2022-11-27T15:57:29.212Z,98873.13
2022-11-27T15:59:56.495Z,98871.63
2022-11-27T16:02:28.242Z,98881.44
2022-11-27T16:04:55.621Z,98879.09
2022-11-27T16:07:23.152Z,98877.59
2022-11-27T16:09:50.441Z,98867.09
2022-11-27T16:12:17.696Z,98867.38
2022-11-27T16:14:44.981Z,98865.16
2022-11-27T16:17:12.257Z,98872.22
2022-11-27T16:19:39.548Z,98867.50
2022-11-27T16:22:07.519Z,98874.63
2022-11-27T16:24:34.803Z,98869.34
2022-11-27T16:27:02.071Z,98872.88
2022-11-27T16:29:29.355Z,98867.13
2022-11-27T16:31:57.010Z,98863.69
2022-11-27T16:34:24.371Z,98861.94
2022-11-27T16:36:51.653Z,98866.13
2022-11-27T16:39:19.095Z,98863.72
2022-11-27T16:41:46.361Z,98856.38
2022-11-27T16:44:15.775Z,98850.88
2022-11-27T16:46:44.577Z,98851.91
2022-11-27T16:49:12.540Z,98853.69
2022-11-27T16:51:41.261Z,98839.78
2022-11-27T16:54:13.314Z,98836.41
2022-11-27T16:56:40.635Z,98835.94
2022-11-27T16:59:12.402Z,98828.91
2022-11-27T17:01:41.525Z,98820.13
2022-11-27T17:04:19.653Z,98815.94
2022-11-27T17:06:49.591Z,98802.88
2022-11-27T17:09:18.091Z,98797.81
2022-11-27T17:11:50.860Z,98798.84
2022-11-27T17:14:19.659Z,98782.13
2022-11-27T17:16:47.551Z,98781.56
2022-11-27T17:19:16.026Z,98772.72
2022-11-27T17:21:43.332Z,98767.44
2022-11-27T17:24:16.670Z,98762.97
2022-11-27T17:26:45.287Z,98764.28
2022-11-27T17:29:19.406Z,98759.88
2022-11-27T17:31:46.830Z,98755.03
2022-11-27T17:34:17.222Z,98740.88
2022-11-27T17:36:45.430Z,98729.03
2022-11-27T17:39:15.331Z,98732.88
2022-11-27T17:41:45.074Z,98719.16
2022-11-27T17:44:13.006Z,98720.72
2022-11-27T17:46:40.466Z,98720.59
2022-11-27T17:49:08.553Z,98710.25
2022-11-27T17:51:36.923Z,98709.94
2022-11-27T17:54:05.491Z,98705.94
2022-11-27T17:56:34.909Z,98717.59
2022-11-27T17:59:02.485Z,98710.63
2022-11-27T18:01:31.311Z,98707.59
2022-11-27T18:04:01.456Z,98688.16
2022-11-27T18:06:28.962Z,98686.94
2022-11-27T18:08:57.498Z,98683.53
2022-11-27T18:11:30.487Z,98686.88
2022-11-27T18:13:58.762Z,98674.97
2022-11-27T18:16:36.329Z,98675.09
2022-11-27T18:19:09.727Z,98676.53
2022-11-27T18:21:38.555Z,98673.03
2022-11-27T18:24:24.364Z,98678.88
2022-11-27T18:27:10.344Z,98672.09
2022-11-27T18:29:44.409Z,98684.47
2022-11-27T18:32:14.916Z,98665.63
2022-11-27T18:34:42.520Z,98679.69
2022-11-27T18:37:10.772Z,98660.69
2022-11-27T18:39:40.353Z,98648.78
2022-11-27T18:42:08.158Z,98636.13
2022-11-27T18:44:41.163Z,98632.03
2022-11-27T18:47:13.631Z,98637.38
2022-11-27T18:49:41.984Z,98658.75
2022-11-27T18:52:10.623Z,98680.03
2022-11-27T18:54:37.947Z,98656.06
2022-11-27T18:57:07.026Z,98649.41
2022-11-27T18:59:34.969Z,98639.88
2022-11-27T19:02:03.632Z,98637.16
2022-11-27T19:04:31.022Z,98645.78
2022-11-27T19:06:58.301Z,98642.63
2022-11-27T19:09:25.555Z,98643.97
2022-11-27T19:11:53.231Z,98637.03
2022-11-27T19:14:20.547Z,98632.59
2022-11-27T19:16:48.570Z,98631.28
2022-11-27T19:22:09.147Z,98622.72
2022-11-27T19:24:37.676Z,98610.38
2022-11-27T19:27:05.023Z,98612.78
2022-11-27T19:29:32.306Z,98621.16
2022-11-27T19:32:01.119Z,98630.06
2022-11-27T19:34:29.049Z,98618.59
2022-11-27T19:36:58.364Z,98620.09
2022-11-27T19:39:27.106Z,98604.69
2022-11-27T19:41:54.553Z,98607.53
2022-11-27T19:44:21.963Z,98605.38
2022-11-27T19:46:49.296Z,98598.97
2022-11-27T19:49:18.718Z,98604.19
2022-11-27T19:51:46.522Z,98598.94
2022-11-27T19:54:16.662Z,98602.41
2022-11-27T19:56:44.142Z,98604.72
2022-11-27T19:59:12.773Z,98588.22
2022-11-27T20:01:40.845Z,98576.66
2022-11-27T20:04:11.916Z,98580.09
2022-11-27T20:06:39.819Z,98574.03
2022-11-27T20:09:07.846Z,98575.03
2022-11-27T20:11:36.347Z,98562.81
2022-11-27T20:14:06.829Z,98558.81
2022-11-27T20:16:36.627Z,98555.75
2022-11-27T20:19:06.133Z,98557.31
2022-11-27T20:21:33.891Z,98540.09
2022-11-27T20:24:02.587Z,98541.91
2022-11-27T20:26:30.647Z,98546.00
2022-11-27T20:28:58.826Z,98538.13
2022-11-27T20:31:32.690Z,98536.28
2022-11-27T20:34:05.087Z,98535.97
2022-11-27T20:36:37.882Z,98530.81
2022-11-27T20:39:05.511Z,98529.66
2022-11-27T20:41:32.788Z,98520.31
2022-11-27T20:44:04.705Z,98523.63
2022-11-27T20:46:33.532Z,98525.31
2022-11-27T20:49:01.090Z,98530.47
2022-11-27T20:51:33.775Z,98536.53
2022-11-27T20:54:02.978Z,98533.44
2022-11-27T20:56:31.611Z,98530.94
2022-11-27T20:58:59.670Z,98541.22
2022-11-27T21:01:34.920Z,98528.31
2022-11-27T21:04:13.637Z,98540.63
2022-11-27T21:06:44.034Z,98538.59
2022-11-27T21:09:13.997Z,98535.06
2022-11-27T21:11:43.331Z,98539.50
2022-11-27T21:14:15.032Z,98539.84
2022-11-27T21:16:49.927Z,98533.78
2022-11-27T21:19:27.779Z,98532.41
2022-11-27T21:21:56.575Z,98512.88
2022-11-27T21:24:27.933Z,98509.91
2022-11-27T21:26:55.348Z,98515.38
2022-11-27T21:29:25.623Z,98512.53
2022-11-27T21:31:53.908Z,98506.56
2022-11-27T21:34:21.459Z,98505.41
2022-11-27T21:36:48.808Z,98496.28
2022-11-27T21:39:26.000Z,98502.56
2022-11-27T21:41:56.204Z,98487.59
2022-11-27T21:44:25.355Z,98478.78
2022-11-27T21:46:52.634Z,98495.03
2022-11-27T21:49:21.454Z,98482.13
2022-11-27T21:51:53.504Z,98490.81
2022-11-27T21:54:21.227Z,98471.59
2022-11-27T21:56:52.651Z,98472.06
2022-11-27T21:59:20.327Z,98465.41
2022-11-27T22:01:47.860Z,98466.22
2022-11-27T22:04:15.499Z,98459.16
2022-11-27T22:06:45.200Z,98472.97
2022-11-27T22:09:16.093Z,98471.72
2022-11-27T22:11:46.784Z,98472.72
2022-11-27T22:14:16.480Z,98472.06
2022-11-27T22:16:46.718Z,98463.38
2022-11-27T22:19:14.831Z,98461.09
2022-11-27T22:21:43.166Z,98458.78
2022-11-27T22:24:16.527Z,98471.38
2022-11-27T22:26:46.100Z,98456.97
2022-11-27T22:29:13.375Z,98462.91
2022-11-27T22:31:40.740Z,98467.94
2022-11-27T22:34:08.158Z,98463.91
2022-11-27T22:36:35.700Z,98453.22
2022-11-27T22:39:09.070Z,98457.09
2022-11-27T22:41:40.333Z,98451.94
2022-11-27T22:44:18.585Z,98459.25
2022-11-27T22:46:46.855Z,98456.06
2022-11-27T22:49:17.853Z,98454.03
2022-11-27T22:51:46.579Z,98446.56
2022-11-27T22:54:17.106Z,98446.91
2022-11-27T22:56:45.833Z,98440.03
2022-11-27T23:02:01.406Z,98445.06
2022-11-27T23:04:28.797Z,98438.69
2022-11-27T23:06:56.084Z,98449.19
2022-11-27T23:09:23.794Z,98450.47
2022-11-27T23:11:51.881Z,98440.50
2022-11-27T23:14:19.981Z,98449.19
2022-11-27T23:16:47.309Z,98447.38
2022-11-27T23:19:14.690Z,98447.59
2022-11-27T23:21:42.224Z,98443.16
2022-11-27T23:24:15.303Z,98427.94
2022-11-27T23:26:43.484Z,98438.91
2022-11-27T23:29:10.775Z,98434.78
2022-11-27T23:31:39.150Z,98429.06
2022-11-27T23:34:13.555Z,98417.44
2022-11-27T23:36:41.343Z,98417.31
2022-11-27T23:39:12.705Z,98435.25
2022-11-27T23:41:40.524Z,98427.47
2022-11-27T23:44:07.946Z,98426.47
2022-11-27T23:46:35.304Z,98433.44
2022-11-27T23:49:02.597Z,98431.16
2022-11-27T23:51:32.972Z,98437.75
2022-11-27T23:54:01.541Z,98429.66
2022-11-27T23:56:32.488Z,98431.38
2022-11-27T23:59:01.030Z,98420.28
